sensor_id;sensor_type;location;lat;lon;timestamp;P1;durP1;ratioP1;P2;durP2;ratioP2
51738;SDS011;37815;52.692;6.226;2022-11-09T00:04:13;4.97;;;1.63;;
51738;SDS011;37815;52.692;6.226;2022-11-09T00:09:14;3.05;;;1.70;;
51738;SDS011;37815;52.692;6.226;2022-11-09T00:14:15;2.60;;;1.38;;
51738;SDS011;37815;52.692;6.226;2022-11-09T00:19:16;3.25;;;1.50;;
51738;SDS011;37815;52.692;6.226;2022-11-09T00:24:17;4.78;;;1.77;;
51738;SDS011;37815;52.692;6.226;2022-11-09T00:29:17;4.57;;;1.40;;
51738;SDS011;37815;52.692;6.226;2022-11-09T00:34:18;3.75;;;1.73;;
51738;SDS011;37815;52.692;6.226;2022-11-09T00:39:19;2.38;;;1.48;;
51738;SDS011;37815;52.692;6.226;2022-11-09T00:44:20;3.40;;;1.73;;
51738;SDS011;37815;52.692;6.226;2022-11-09T00:49:20;5.78;;;2.22;;
51738;SDS011;37815;52.692;6.226;2022-11-09T00:54:21;4.13;;;1.90;;
51738;SDS011;37815;52.692;6.226;2022-11-09T00:59:22;2.67;;;1.58;;
51738;SDS011;37815;52.692;6.226;2022-11-09T01:04:22;5.22;;;1.70;;
51738;SDS011;37815;52.692;6.226;2022-11-09T01:09:23;3.00;;;1.80;;
51738;SDS011;37815;52.692;6.226;2022-11-09T01:14:23;2.88;;;1.88;;
51738;SDS011;37815;52.692;6.226;2022-11-09T01:19:24;2.90;;;1.88;;
51738;SDS011;37815;52.692;6.226;2022-11-09T01:24:25;2.65;;;1.48;;
51738;SDS011;37815;52.692;6.226;2022-11-09T01:29:26;2.70;;;1.63;;
51738;SDS011;37815;52.692;6.226;2022-11-09T01:34:27;3.70;;;1.52;;
51738;SDS011;37815;52.692;6.226;2022-11-09T01:39:28;3.97;;;1.60;;
51738;SDS011;37815;52.692;6.226;2022-11-09T01:44:28;6.40;;;1.85;;
51738;SDS011;37815;52.692;6.226;2022-11-09T01:54:38;4.90;;;1.50;;
51738;SDS011;37815;52.692;6.226;2022-11-09T01:59:46;3.22;;;1.50;;
51738;SDS011;37815;52.692;6.226;2022-11-09T02:04:53;2.78;;;1.83;;
51738;SDS011;37815;52.692;6.226;2022-11-09T02:10:05;2.85;;;1.40;;
51738;SDS011;37815;52.692;6.226;2022-11-09T02:15:19;4.22;;;1.75;;
51738;SDS011;37815;52.692;6.226;2022-11-09T02:20:21;3.80;;;1.50;;
51738;SDS011;37815;52.692;6.226;2022-11-09T02:25:23;3.50;;;1.58;;
51738;SDS011;37815;52.692;6.226;2022-11-09T02:30:23;5.40;;;1.60;;
51738;SDS011;37815;52.692;6.226;2022-11-09T02:35:24;5.38;;;1.73;;
51738;SDS011;37815;52.692;6.226;2022-11-09T02:40:29;4.40;;;1.65;;
51738;SDS011;37815;52.692;6.226;2022-11-09T02:45:32;3.72;;;1.73;;
51738;SDS011;37815;52.692;6.226;2022-11-09T02:50:33;4.63;;;1.58;;
51738;SDS011;37815;52.692;6.226;2022-11-09T02:55:36;3.13;;;1.55;;
51738;SDS011;37815;52.692;6.226;2022-11-09T03:00:39;5.07;;;1.50;;
51738;SDS011;37815;52.692;6.226;2022-11-09T03:05:39;3.88;;;1.33;;
51738;SDS011;37815;52.692;6.226;2022-11-09T03:10:43;2.67;;;1.30;;
51738;SDS011;37815;52.692;6.226;2022-11-09T03:15:43;2.88;;;1.55;;
51738;SDS011;37815;52.692;6.226;2022-11-09T03:20:44;4.60;;;1.27;;
51738;SDS011;37815;52.692;6.226;2022-11-09T03:25:45;2.55;;;1.33;;
51738;SDS011;37815;52.692;6.226;2022-11-09T03:30:45;3.85;;;1.20;;
51738;SDS011;37815;52.692;6.226;2022-11-09T03:35:46;7.20;;;1.40;;
51738;SDS011;37815;52.692;6.226;2022-11-09T03:40:47;4.78;;;1.30;;
51738;SDS011;37815;52.692;6.226;2022-11-09T03:45:47;1.77;;;1.23;;
51738;SDS011;37815;52.692;6.226;2022-11-09T03:50:48;2.63;;;1.20;;
51738;SDS011;37815;52.692;6.226;2022-11-09T03:55:49;4.07;;;1.38;;
51738;SDS011;37815;52.692;6.226;2022-11-09T04:00:50;2.65;;;1.40;;
51738;SDS011;37815;52.692;6.226;2022-11-09T04:05:51;1.83;;;1.30;;
51738;SDS011;37815;52.692;6.226;2022-11-09T04:10:51;2.38;;;1.27;;
51738;SDS011;37815;52.692;6.226;2022-11-09T04:15:52;4.70;;;1.35;;
51738;SDS011;37815;52.692;6.226;2022-11-09T04:20:53;4.07;;;1.20;;
51738;SDS011;37815;52.692;6.226;2022-11-09T04:25:56;3.33;;;1.40;;
51738;SDS011;37815;52.692;6.226;2022-11-09T04:31:00;7.20;;;1.60;;
51738;SDS011;37815;52.692;6.226;2022-11-09T04:36:02;5.55;;;2.65;;
51738;SDS011;37815;52.692;6.226;2022-11-09T04:41:03;4.60;;;1.60;;
51738;SDS011;37815;52.692;6.226;2022-11-09T04:46:04;7.43;;;1.63;;
51738;SDS011;37815;52.692;6.226;2022-11-09T04:51:06;3.05;;;1.40;;
51738;SDS011;37815;52.692;6.226;2022-11-09T04:56:07;3.65;;;1.55;;
51738;SDS011;37815;52.692;6.226;2022-11-09T05:01:10;3.75;;;1.13;;
51738;SDS011;37815;52.692;6.226;2022-11-09T05:06:13;4.20;;;1.60;;
51738;SDS011;37815;52.692;6.226;2022-11-09T05:11:32;2.75;;;1.60;;
51738;SDS011;37815;52.692;6.226;2022-11-09T05:16:34;2.30;;;1.05;;
51738;SDS011;37815;52.692;6.226;2022-11-09T05:21:35;3.22;;;1.15;;
51738;SDS011;37815;52.692;6.226;2022-11-09T05:26:39;7.32;;;1.60;;
51738;SDS011;37815;52.692;6.226;2022-11-09T05:31:41;2.28;;;0.98;;
51738;SDS011;37815;52.692;6.226;2022-11-09T05:36:41;2.53;;;1.25;;
51738;SDS011;37815;52.692;6.226;2022-11-09T05:41:42;3.97;;;1.60;;
51738;SDS011;37815;52.692;6.226;2022-11-09T05:46:43;3.17;;;1.50;;
51738;SDS011;37815;52.692;6.226;2022-11-09T05:51:43;2.40;;;1.10;;
51738;SDS011;37815;52.692;6.226;2022-11-09T05:56:44;3.08;;;1.30;;
51738;SDS011;37815;52.692;6.226;2022-11-09T06:01:45;7.15;;;1.95;;
51738;SDS011;37815;52.692;6.226;2022-11-09T06:06:46;3.33;;;1.23;;
51738;SDS011;37815;52.692;6.226;2022-11-09T06:11:46;4.00;;;1.05;;
51738;SDS011;37815;52.692;6.226;2022-11-09T06:16:49;3.47;;;1.23;;
51738;SDS011;37815;52.692;6.226;2022-11-09T06:21:50;2.63;;;1.17;;
51738;SDS011;37815;52.692;6.226;2022-11-09T06:26:51;3.35;;;1.08;;
51738;SDS011;37815;52.692;6.226;2022-11-09T06:31:51;2.17;;;1.05;;
51738;SDS011;37815;52.692;6.226;2022-11-09T06:36:52;3.58;;;1.45;;
51738;SDS011;37815;52.692;6.226;2022-11-09T06:41:53;2.22;;;1.20;;
51738;SDS011;37815;52.692;6.226;2022-11-09T06:46:53;6.10;;;1.27;;
51738;SDS011;37815;52.692;6.226;2022-11-09T06:51:54;3.13;;;1.10;;
51738;SDS011;37815;52.692;6.226;2022-11-09T06:56:55;4.80;;;1.48;;
51738;SDS011;37815;52.692;6.226;2022-11-09T07:01:56;5.22;;;1.30;;
51738;SDS011;37815;52.692;6.226;2022-11-09T07:06:57;4.55;;;1.10;;
51738;SDS011;37815;52.692;6.226;2022-11-09T07:11:57;3.92;;;1.00;;
51738;SDS011;37815;52.692;6.226;2022-11-09T07:16:59;2.75;;;0.98;;
51738;SDS011;37815;52.692;6.226;2022-11-09T07:22:00;3.47;;;1.17;;
51738;SDS011;37815;52.692;6.226;2022-11-09T07:27:00;6.80;;;1.20;;
51738;SDS011;37815;52.692;6.226;2022-11-09T07:32:01;3.70;;;1.30;;
51738;SDS011;37815;52.692;6.226;2022-11-09T07:37:02;3.08;;;1.20;;
51738;SDS011;37815;52.692;6.226;2022-11-09T07:42:02;3.42;;;1.13;;
51738;SDS011;37815;52.692;6.226;2022-11-09T07:47:05;3.97;;;1.20;;
51738;SDS011;37815;52.692;6.226;2022-11-09T07:52:05;3.35;;;1.13;;
51738;SDS011;37815;52.692;6.226;2022-11-09T07:57:06;3.92;;;1.00;;
51738;SDS011;37815;52.692;6.226;2022-11-09T08:02:07;1.98;;;0.95;;
51738;SDS011;37815;52.692;6.226;2022-11-09T08:07:08;2.30;;;1.02;;
51738;SDS011;37815;52.692;6.226;2022-11-09T08:12:09;2.35;;;0.90;;
51738;SDS011;37815;52.692;6.226;2022-11-09T08:17:10;4.40;;;1.60;;
51738;SDS011;37815;52.692;6.226;2022-11-09T08:22:10;2.13;;;1.05;;
51738;SDS011;37815;52.692;6.226;2022-11-09T08:27:11;4.57;;;1.10;;
51738;SDS011;37815;52.692;6.226;2022-11-09T08:32:12;3.53;;;1.10;;
51738;SDS011;37815;52.692;6.226;2022-11-09T08:37:13;3.30;;;1.30;;
51738;SDS011;37815;52.692;6.226;2022-11-09T08:42:15;5.43;;;1.30;;
51738;SDS011;37815;52.692;6.226;2022-11-09T08:47:15;4.68;;;1.42;;
51738;SDS011;37815;52.692;6.226;2022-11-09T08:52:16;3.55;;;1.02;;
51738;SDS011;37815;52.692;6.226;2022-11-09T08:57:17;4.70;;;1.50;;
51738;SDS011;37815;52.692;6.226;2022-11-09T09:02:18;3.38;;;1.08;;
51738;SDS011;37815;52.692;6.226;2022-11-09T09:07:19;4.20;;;1.10;;
51738;SDS011;37815;52.692;6.226;2022-11-09T09:12:20;4.93;;;1.48;;
51738;SDS011;37815;52.692;6.226;2022-11-09T09:17:21;8.18;;;1.45;;
51738;SDS011;37815;52.692;6.226;2022-11-09T09:22:22;1.85;;;1.10;;
51738;SDS011;37815;52.692;6.226;2022-11-09T09:27:22;4.30;;;1.45;;
51738;SDS011;37815;52.692;6.226;2022-11-09T09:32:23;5.35;;;1.60;;
51738;SDS011;37815;52.692;6.226;2022-11-09T09:37:24;4.53;;;1.65;;
51738;SDS011;37815;52.692;6.226;2022-11-09T09:42:35;3.22;;;1.35;;
51738;SDS011;37815;52.692;6.226;2022-11-09T09:48:02;3.25;;;1.23;;
51738;SDS011;37815;52.692;6.226;2022-11-09T09:53:15;4.13;;;1.35;;
51738;SDS011;37815;52.692;6.226;2022-11-09T09:58:19;6.38;;;2.17;;
51738;SDS011;37815;52.692;6.226;2022-11-09T10:03:27;6.63;;;2.35;;
51738;SDS011;37815;52.692;6.226;2022-11-09T10:25:12;3.85;;;1.63;;
51738;SDS011;37815;52.692;6.226;2022-11-09T10:30:22;3.92;;;1.70;;
51738;SDS011;37815;52.692;6.226;2022-11-09T10:35:29;3.80;;;2.05;;
51738;SDS011;37815;52.692;6.226;2022-11-09T10:40:34;6.68;;;1.92;;
51738;SDS011;37815;52.692;6.226;2022-11-09T10:45:41;4.57;;;2.20;;
51738;SDS011;37815;52.692;6.226;2022-11-09T10:55:55;5.50;;;1.97;;
51738;SDS011;37815;52.692;6.226;2022-11-09T11:01:12;3.85;;;2.10;;
51738;SDS011;37815;52.692;6.226;2022-11-09T11:16:33;7.23;;;1.93;;
51738;SDS011;37815;52.692;6.226;2022-11-09T11:21:34;8.90;;;2.30;;
51738;SDS011;37815;52.692;6.226;2022-11-09T11:32:00;4.65;;;2.28;;
51738;SDS011;37815;52.692;6.226;2022-11-09T11:59:26;3.65;;;2.40;;
51738;SDS011;37815;52.692;6.226;2022-11-09T12:20:30;5.32;;;2.55;;
51738;SDS011;37815;52.692;6.226;2022-11-09T12:25:45;6.22;;;2.38;;
51738;SDS011;37815;52.692;6.226;2022-11-09T12:36:37;9.70;;;2.47;;
51738;SDS011;37815;52.692;6.226;2022-11-09T12:41:44;4.40;;;1.85;;
51738;SDS011;37815;52.692;6.226;2022-11-09T12:46:48;4.40;;;1.88;;
51738;SDS011;37815;52.692;6.226;2022-11-09T12:51:51;5.93;;;2.20;;
51738;SDS011;37815;52.692;6.226;2022-11-09T12:56:57;4.25;;;2.10;;
51738;SDS011;37815;52.692;6.226;2022-11-09T13:02:01;4.15;;;2.05;;
51738;SDS011;37815;52.692;6.226;2022-11-09T13:12:26;3.25;;;2.13;;
51738;SDS011;37815;52.692;6.226;2022-11-09T13:27:56;3.25;;;2.00;;
51738;SDS011;37815;52.692;6.226;2022-11-09T13:38:16;5.53;;;1.80;;
51738;SDS011;37815;52.692;6.226;2022-11-09T13:48:30;3.83;;;1.83;;
51738;SDS011;37815;52.692;6.226;2022-11-09T14:04:22;2.75;;;1.40;;
51738;SDS011;37815;52.692;6.226;2022-11-09T14:09:23;3.33;;;1.80;;
51738;SDS011;37815;52.692;6.226;2022-11-09T14:14:28;5.43;;;2.28;;
51738;SDS011;37815;52.692;6.226;2022-11-09T14:19:56;2.95;;;1.60;;
51738;SDS011;37815;52.692;6.226;2022-11-09T14:25:16;2.45;;;1.52;;
51738;SDS011;37815;52.692;6.226;2022-11-09T14:30:20;4.03;;;1.80;;
51738;SDS011;37815;52.692;6.226;2022-11-09T14:35:34;4.57;;;1.95;;
51738;SDS011;37815;52.692;6.226;2022-11-09T14:40:36;3.78;;;1.67;;
51738;SDS011;37815;52.692;6.226;2022-11-09T14:45:49;3.60;;;1.80;;
51738;SDS011;37815;52.692;6.226;2022-11-09T14:50:56;14.45;;;2.95;;
51738;SDS011;37815;52.692;6.226;2022-11-09T14:56:05;9.32;;;2.33;;
51738;SDS011;37815;52.692;6.226;2022-11-09T15:06:17;3.72;;;1.88;;
51738;SDS011;37815;52.692;6.226;2022-11-09T15:11:17;4.90;;;2.00;;
51738;SDS011;37815;52.692;6.226;2022-11-09T15:16:20;3.70;;;2.60;;
51738;SDS011;37815;52.692;6.226;2022-11-09T15:31:27;2.92;;;1.80;;
51738;SDS011;37815;52.692;6.226;2022-11-09T15:36:32;6.80;;;1.83;;
51738;SDS011;37815;52.692;6.226;2022-11-09T15:41:35;3.90;;;1.60;;
51738;SDS011;37815;52.692;6.226;2022-11-09T15:46:46;4.60;;;2.17;;
51738;SDS011;37815;52.692;6.226;2022-11-09T15:51:51;3.88;;;1.65;;
51738;SDS011;37815;52.692;6.226;2022-11-09T15:56:53;4.40;;;1.70;;
51738;SDS011;37815;52.692;6.226;2022-11-09T16:01:59;2.92;;;1.45;;
51738;SDS011;37815;52.692;6.226;2022-11-09T16:07:00;2.97;;;1.50;;
51738;SDS011;37815;52.692;6.226;2022-11-09T16:12:00;6.00;;;1.70;;
51738;SDS011;37815;52.692;6.226;2022-11-09T16:17:01;2.65;;;1.60;;
51738;SDS011;37815;52.692;6.226;2022-11-09T16:22:02;2.90;;;1.73;;
51738;SDS011;37815;52.692;6.226;2022-11-09T16:27:04;1.85;;;1.17;;
51738;SDS011;37815;52.692;6.226;2022-11-09T16:32:06;5.13;;;1.60;;
51738;SDS011;37815;52.692;6.226;2022-11-09T16:37:06;1.60;;;1.25;;
51738;SDS011;37815;52.692;6.226;2022-11-09T16:42:08;3.75;;;1.50;;
51738;SDS011;37815;52.692;6.226;2022-11-09T16:47:11;3.33;;;1.30;;
51738;SDS011;37815;52.692;6.226;2022-11-09T16:52:14;4.18;;;1.60;;
51738;SDS011;37815;52.692;6.226;2022-11-09T16:57:15;2.15;;;1.35;;
51738;SDS011;37815;52.692;6.226;2022-11-09T17:02:16;3.00;;;1.50;;
51738;SDS011;37815;52.692;6.226;2022-11-09T17:07:16;2.95;;;1.25;;
51738;SDS011;37815;52.692;6.226;2022-11-09T17:12:17;6.72;;;1.60;;
51738;SDS011;37815;52.692;6.226;2022-11-09T17:17:18;6.88;;;1.55;;
51738;SDS011;37815;52.692;6.226;2022-11-09T17:22:19;4.13;;;1.20;;
51738;SDS011;37815;52.692;6.226;2022-11-09T17:27:20;4.28;;;1.52;;
51738;SDS011;37815;52.692;6.226;2022-11-09T17:32:20;2.90;;;1.20;;
51738;SDS011;37815;52.692;6.226;2022-11-09T17:37:25;3.47;;;1.60;;
51738;SDS011;37815;52.692;6.226;2022-11-09T17:42:25;3.47;;;1.15;;
51738;SDS011;37815;52.692;6.226;2022-11-09T17:47:26;3.40;;;1.25;;
51738;SDS011;37815;52.692;6.226;2022-11-09T17:52:27;3.97;;;1.48;;
51738;SDS011;37815;52.692;6.226;2022-11-09T17:57:27;5.22;;;1.40;;
51738;SDS011;37815;52.692;6.226;2022-11-09T18:02:28;2.50;;;1.20;;
51738;SDS011;37815;52.692;6.226;2022-11-09T18:07:29;4.85;;;1.25;;
51738;SDS011;37815;52.692;6.226;2022-11-09T18:12:30;6.82;;;1.65;;
51738;SDS011;37815;52.692;6.226;2022-11-09T18:17:30;6.53;;;1.70;;
51738;SDS011;37815;52.692;6.226;2022-11-09T18:22:31;3.45;;;1.20;;
51738;SDS011;37815;52.692;6.226;2022-11-09T18:27:32;5.88;;;1.10;;
51738;SDS011;37815;52.692;6.226;2022-11-09T18:32:32;3.97;;;1.27;;
51738;SDS011;37815;52.692;6.226;2022-11-09T18:37:36;1.33;;;1.00;;
51738;SDS011;37815;52.692;6.226;2022-11-09T18:42:37;2.40;;;1.02;;
51738;SDS011;37815;52.692;6.226;2022-11-09T18:47:38;5.30;;;1.63;;
51738;SDS011;37815;52.692;6.226;2022-11-09T18:52:39;4.22;;;1.13;;
51738;SDS011;37815;52.692;6.226;2022-11-09T18:57:40;7.43;;;1.63;;
51738;SDS011;37815;52.692;6.226;2022-11-09T19:02:40;4.18;;;1.20;;
51738;SDS011;37815;52.692;6.226;2022-11-09T19:07:41;2.78;;;1.05;;
51738;SDS011;37815;52.692;6.226;2022-11-09T19:12:42;3.83;;;1.10;;
51738;SDS011;37815;52.692;6.226;2022-11-09T19:17:42;2.70;;;1.08;;
51738;SDS011;37815;52.692;6.226;2022-11-09T19:22:43;4.88;;;1.13;;
51738;SDS011;37815;52.692;6.226;2022-11-09T19:27:44;3.42;;;0.90;;
51738;SDS011;37815;52.692;6.226;2022-11-09T19:32:44;4.72;;;1.92;;
51738;SDS011;37815;52.692;6.226;2022-11-09T19:37:45;2.47;;;0.80;;
51738;SDS011;37815;52.692;6.226;2022-11-09T19:42:46;4.20;;;1.30;;
51738;SDS011;37815;52.692;6.226;2022-11-09T19:47:47;3.28;;;0.95;;
51738;SDS011;37815;52.692;6.226;2022-11-09T19:52:48;3.65;;;0.93;;
51738;SDS011;37815;52.692;6.226;2022-11-09T19:57:49;1.85;;;1.10;;
51738;SDS011;37815;52.692;6.226;2022-11-09T20:02:50;3.45;;;1.00;;
51738;SDS011;37815;52.692;6.226;2022-11-09T20:07:50;5.40;;;1.30;;
51738;SDS011;37815;52.692;6.226;2022-11-09T20:12:51;3.45;;;0.90;;
51738;SDS011;37815;52.692;6.226;2022-11-09T20:17:53;2.95;;;1.02;;
51738;SDS011;37815;52.692;6.226;2022-11-09T20:22:54;5.30;;;1.27;;
51738;SDS011;37815;52.692;6.226;2022-11-09T20:27:55;2.95;;;1.10;;
51738;SDS011;37815;52.692;6.226;2022-11-09T20:32:55;1.70;;;0.90;;
51738;SDS011;37815;52.692;6.226;2022-11-09T20:37:56;2.88;;;0.90;;
51738;SDS011;37815;52.692;6.226;2022-11-09T20:42:57;2.17;;;0.98;;
51738;SDS011;37815;52.692;6.226;2022-11-09T20:47:57;3.05;;;1.00;;
51738;SDS011;37815;52.692;6.226;2022-11-09T20:52:58;3.85;;;1.02;;
51738;SDS011;37815;52.692;6.226;2022-11-09T20:57:59;2.13;;;0.70;;
51738;SDS011;37815;52.692;6.226;2022-11-09T21:03:00;2.90;;;0.70;;
51738;SDS011;37815;52.692;6.226;2022-11-09T21:08:00;3.90;;;1.00;;
51738;SDS011;37815;52.692;6.226;2022-11-09T21:13:01;2.53;;;1.08;;
51738;SDS011;37815;52.692;6.226;2022-11-09T21:18:02;3.38;;;1.27;;
51738;SDS011;37815;52.692;6.226;2022-11-09T21:23:02;2.92;;;1.10;;
51738;SDS011;37815;52.692;6.226;2022-11-09T21:28:12;2.22;;;1.17;;
51738;SDS011;37815;52.692;6.226;2022-11-09T21:33:33;2.38;;;0.93;;
51738;SDS011;37815;52.692;6.226;2022-11-09T21:38:34;2.00;;;0.95;;
51738;SDS011;37815;52.692;6.226;2022-11-09T21:43:37;2.85;;;1.10;;
51738;SDS011;37815;52.692;6.226;2022-11-09T21:48:38;4.13;;;1.33;;
51738;SDS011;37815;52.692;6.226;2022-11-09T21:53:38;4.00;;;1.20;;
51738;SDS011;37815;52.692;6.226;2022-11-09T21:58:39;2.30;;;0.88;;
51738;SDS011;37815;52.692;6.226;2022-11-09T22:03:44;2.83;;;1.30;;
51738;SDS011;37815;52.692;6.226;2022-11-09T22:08:46;4.00;;;1.10;;
51738;SDS011;37815;52.692;6.226;2022-11-09T22:13:48;2.90;;;1.10;;
51738;SDS011;37815;52.692;6.226;2022-11-09T22:19:07;1.75;;;0.90;;
51738;SDS011;37815;52.692;6.226;2022-11-09T22:24:26;3.10;;;1.08;;
51738;SDS011;37815;52.692;6.226;2022-11-09T22:29:27;3.72;;;1.40;;
51738;SDS011;37815;52.692;6.226;2022-11-09T22:34:28;5.00;;;1.38;;
51738;SDS011;37815;52.692;6.226;2022-11-09T22:39:29;3.53;;;1.40;;
51738;SDS011;37815;52.692;6.226;2022-11-09T22:44:48;2.92;;;0.90;;
51738;SDS011;37815;52.692;6.226;2022-11-09T22:49:48;2.17;;;0.80;;
51738;SDS011;37815;52.692;6.226;2022-11-09T22:54:49;6.00;;;1.42;;
51738;SDS011;37815;52.692;6.226;2022-11-09T22:59:49;5.82;;;1.00;;
51738;SDS011;37815;52.692;6.226;2022-11-09T23:04:50;2.13;;;1.00;;
51738;SDS011;37815;52.692;6.226;2022-11-09T23:09:51;5.03;;;1.50;;
51738;SDS011;37815;52.692;6.226;2022-11-09T23:14:51;3.15;;;1.20;;
51738;SDS011;37815;52.692;6.226;2022-11-09T23:20:04;1.63;;;1.00;;
51738;SDS011;37815;52.692;6.226;2022-11-09T23:25:05;3.05;;;1.05;;
51738;SDS011;37815;52.692;6.226;2022-11-09T23:30:28;2.40;;;1.05;;
51738;SDS011;37815;52.692;6.226;2022-11-09T23:35:29;2.58;;;0.80;;
51738;SDS011;37815;52.692;6.226;2022-11-09T23:40:31;4.10;;;1.25;;
51738;SDS011;37815;52.692;6.226;2022-11-09T23:45:33;4.68;;;1.23;;
51738;SDS011;37815;52.692;6.226;2022-11-09T23:50:34;4.32;;;1.13;;
51738;SDS011;37815;52.692;6.226;2022-11-09T23:55:35;3.88;;;1.20;;
